< Typhoon 200816 2008 Season Typhoon 200818 >
Typhoon 200817 (HIGOS)
General InformationTrack Information on Google MapsDetailed Wind InformationAccess Analytics MapList of All Images || NewsDisaster Info.WeblogTrackbackTyphoon FrontTyphoon ImaginationResourceGoogle EarthGE AnimationAtom FeedGeoJSON
Detalied Best Track (Time Zone = UTC)
Year Month Day Hour Lat. Long. Pressure (hPa) Wind (kt) Class Image Chart
2008 9 28 18 7.9 134.4 1006 0 2 Image Chart
2008 9 29 00 8.1 132.5 1006 0 2 Image Chart
2008 9 29 06 8.7 130.8 1004 0 2 Image Chart
2008 9 29 12 8.9 129.4 1004 0 2 Image Chart
2008 9 29 18 9.9 127.9 1004 0 2 Image Chart
2008 9 30 00 11.0 126.7 1004 0 2 Image Chart
2008 9 30 06 12.0 125.8 1004 0 2 Image Chart
2008 9 30 12 12.9 125.0 1006 0 2 Image Chart
2008 9 30 18 13.6 124.3 1006 0 2 Image Chart
2008 10 1 00 14.0 123.1 1006 0 2 Image Chart
2008 10 1 06 14.2 121.8 1004 0 2 Image Chart
2008 10 1 12 14.6 120.2 1004 0 2 Image Chart
2008 10 1 18 14.9 118.2 1000 0 2 Image Chart
2008 10 2 00 15.3 116.3 996 35 3 Image Chart
2008 10 2 06 15.9 114.5 996 35 3 Image Chart
2008 10 2 12 16.3 113.4 996 35 3 Image Chart
2008 10 2 18 17.0 112.7 996 35 3 Image Chart
2008 10 3 00 17.7 111.7 996 35 3 Image Chart
2008 10 3 06 18.2 110.9 998 0 2 Image Chart
2008 10 3 12 19.0 110.7 998 0 2 Image Chart
2008 10 3 18 19.7 110.6 998 0 2 Image Chart
2008 10 4 00 20.4 110.6 998 0 2 Image Chart
2008 10 4 06 20.9 110.6 1000 0 2 Image Chart
2008 10 4 12 21.3 110.6 1002 0 2 Image Chart
2008 10 4 18 21.7 111.0 1002 0 2 Image Chart
2008 10 5 00 21.9 111.8 1002 0 2 Image Chart
2008 10 5 06 22.0 112.5 1002 0 2 Image Chart
2008 10 5 12 22.7 113.7 1002 0 2 Image Chart
2008 10 5 18 23.1 114.8 1004 0 2 Image Chart
2008 10 6 00 23.2 115.9 1008 0 2 Image Chart
2008 10 6 06 23.4 116.5 1008 0 2 Image Chart
Japan Meteorological Agency Best Track Data | Correction Date : 2008-11-21
< Typhoon 200816 2008 Season Typhoon 200818 >

Help